sensor_id;sensor_type;location;lat;lon;timestamp;pressure;altitude;pressure_sealevel;temperature;humidity
54554;BME280;40450;55.848;-3.572;2023-02-15T00:00:37;99885.73;;;5.01;88.11
54554;BME280;40450;55.848;-3.572;2023-02-15T00:03:07;99882.15;;;5.88;85.77
54554;BME280;40450;55.848;-3.572;2023-02-15T00:05:37;99879.65;;;5.65;85.67
54554;BME280;40450;55.848;-3.572;2023-02-15T00:08:07;99877.40;;;5.56;85.72
54554;BME280;40450;55.848;-3.572;2023-02-15T00:10:38;99877.88;;;5.63;85.65
54554;BME280;40450;55.848;-3.572;2023-02-15T00:13:08;99876.80;;;5.74;85.00
54554;BME280;40450;55.848;-3.572;2023-02-15T00:15:39;99876.15;;;5.96;84.04
54554;BME280;40450;55.848;-3.572;2023-02-15T00:18:09;99872.40;;;5.94;83.97
54554;BME280;40450;55.848;-3.572;2023-02-15T00:20:39;99868.62;;;5.60;84.60
54554;BME280;40450;55.848;-3.572;2023-02-15T00:23:10;99859.88;;;5.52;85.12
54554;BME280;40450;55.848;-3.572;2023-02-15T00:25:41;99857.53;;;5.45;85.13
54554;BME280;40450;55.848;-3.572;2023-02-15T00:28:11;99854.73;;;4.88;86.01
54554;BME280;40450;55.848;-3.572;2023-02-15T00:30:41;99850.02;;;5.13;85.50
54554;BME280;40450;55.848;-3.572;2023-02-15T00:33:11;99841.63;;;4.94;85.55
54554;BME280;40450;55.848;-3.572;2023-02-15T00:35:42;99840.48;;;5.41;84.32
54554;BME280;40450;55.848;-3.572;2023-02-15T00:38:12;99832.95;;;5.29;83.94
54554;BME280;40450;55.848;-3.572;2023-02-15T00:40:42;99826.15;;;5.65;82.97
54554;BME280;40450;55.848;-3.572;2023-02-15T00:43:12;99821.73;;;4.97;83.90
54554;BME280;40450;55.848;-3.572;2023-02-15T00:45:42;99816.73;;;4.80;84.33
54554;BME280;40450;55.848;-3.572;2023-02-15T00:48:13;99813.54;;;4.63;84.66
54554;BME280;40450;55.848;-3.572;2023-02-15T00:50:45;99810.58;;;4.59;84.41
54554;BME280;40450;55.848;-3.572;2023-02-15T00:53:14;99807.30;;;5.00;83.68
54554;BME280;40450;55.848;-3.572;2023-02-15T00:55:44;99805.57;;;5.48;82.42
54554;BME280;40450;55.848;-3.572;2023-02-15T00:58:15;99806.53;;;5.48;81.87
54554;BME280;40450;55.848;-3.572;2023-02-15T01:00:46;99804.18;;;5.33;82.07
54554;BME280;40450;55.848;-3.572;2023-02-15T01:03:16;99799.99;;;5.15;82.53
54554;BME280;40450;55.848;-3.572;2023-02-15T01:05:46;99794.56;;;5.38;81.68
54554;BME280;40450;55.848;-3.572;2023-02-15T01:08:16;99789.90;;;5.59;81.17
54554;BME280;40450;55.848;-3.572;2023-02-15T01:10:47;99788.88;;;5.18;82.02
54554;BME280;40450;55.848;-3.572;2023-02-15T01:13:17;99785.90;;;5.10;81.85
54554;BME280;40450;55.848;-3.572;2023-02-15T01:15:52;99782.00;;;5.13;82.30
54554;BME280;40450;55.848;-3.572;2023-02-15T01:18:18;99776.28;;;5.08;81.75
54554;BME280;40450;55.848;-3.572;2023-02-15T01:20:49;99773.33;;;5.23;81.47
54554;BME280;40450;55.848;-3.572;2023-02-15T01:23:19;99766.35;;;5.23;81.19
54554;BME280;40450;55.848;-3.572;2023-02-15T01:25:49;99760.18;;;5.42;80.62
54554;BME280;40450;55.848;-3.572;2023-02-15T01:28:20;99756.33;;;5.03;81.95
54554;BME280;40450;55.848;-3.572;2023-02-15T01:30:50;99750.04;;;4.53;83.57
54554;BME280;40450;55.848;-3.572;2023-02-15T01:33:21;99744.55;;;4.00;84.60
54554;BME280;40450;55.848;-3.572;2023-02-15T01:35:56;99739.68;;;4.13;84.75
54554;BME280;40450;55.848;-3.572;2023-02-15T01:38:22;99733.91;;;3.91;85.06
54554;BME280;40450;55.848;-3.572;2023-02-15T01:40:52;99726.84;;;3.83;85.18
54554;BME280;40450;55.848;-3.572;2023-02-15T01:45:53;99721.86;;;3.92;84.88
54554;BME280;40450;55.848;-3.572;2023-02-15T01:48:25;99714.21;;;3.76;84.84
54554;BME280;40450;55.848;-3.572;2023-02-15T01:50:57;99711.99;;;3.20;85.78
54554;BME280;40450;55.848;-3.572;2023-02-15T01:53:26;99713.66;;;3.91;84.38
54554;BME280;40450;55.848;-3.572;2023-02-15T01:55:58;99716.06;;;3.87;84.14
54554;BME280;40450;55.848;-3.572;2023-02-15T01:58:26;99718.02;;;3.39;85.58
54554;BME280;40450;55.848;-3.572;2023-02-15T02:00:57;99716.81;;;3.22;85.75
54554;BME280;40450;55.848;-3.572;2023-02-15T02:03:36;99712.91;;;3.13;85.86
54554;BME280;40450;55.848;-3.572;2023-02-15T02:05:57;99707.94;;;2.50;86.99
54554;BME280;40450;55.848;-3.572;2023-02-15T02:08:27;99708.76;;;2.99;86.26
54554;BME280;40450;55.848;-3.572;2023-02-15T02:10:58;99714.68;;;2.99;86.12
54554;BME280;40450;55.848;-3.572;2023-02-15T02:13:28;99717.11;;;3.38;85.43
54554;BME280;40450;55.848;-3.572;2023-02-15T02:16:02;99718.28;;;3.89;84.49
54554;BME280;40450;55.848;-3.572;2023-02-15T02:18:39;99713.00;;;3.67;84.83
54554;BME280;40450;55.848;-3.572;2023-02-15T02:21:10;99710.58;;;3.61;84.90
54554;BME280;40450;55.848;-3.572;2023-02-15T02:23:38;99708.96;;;3.48;84.91
54554;BME280;40450;55.848;-3.572;2023-02-15T02:33:39;99700.34;;;3.74;82.86
54554;BME280;40450;55.848;-3.572;2023-02-15T02:36:10;99690.15;;;4.68;80.95
54554;BME280;40450;55.848;-3.572;2023-02-15T02:38:40;99677.64;;;4.90;80.02
54554;BME280;40450;55.848;-3.572;2023-02-15T02:41:10;99674.66;;;4.87;80.64
54554;BME280;40450;55.848;-3.572;2023-02-15T02:43:38;99663.09;;;4.81;80.77
54554;BME280;40450;55.848;-3.572;2023-02-15T02:46:08;99652.19;;;5.00;79.97
54554;BME280;40450;55.848;-3.572;2023-02-15T02:48:34;99650.10;;;4.40;80.39
54554;BME280;40450;55.848;-3.572;2023-02-15T02:51:04;99648.19;;;4.47;80.14
54554;BME280;40450;55.848;-3.572;2023-02-15T02:53:35;99643.61;;;4.35;80.30
54554;BME280;40450;55.848;-3.572;2023-02-15T02:56:09;99636.34;;;4.71;79.78
54554;BME280;40450;55.848;-3.572;2023-02-15T02:58:39;99635.30;;;4.71;79.36
54554;BME280;40450;55.848;-3.572;2023-02-15T03:01:11;99629.30;;;4.37;80.23
54554;BME280;40450;55.848;-3.572;2023-02-15T03:03:38;99630.50;;;4.72;79.43
54554;BME280;40450;55.848;-3.572;2023-02-15T03:06:10;99633.34;;;4.20;80.01
54554;BME280;40450;55.848;-3.572;2023-02-15T03:08:41;99637.51;;;3.58;81.75
54554;BME280;40450;55.848;-3.572;2023-02-15T03:11:09;99625.76;;;4.18;80.95
54554;BME280;40450;55.848;-3.572;2023-02-15T03:13:38;99625.44;;;3.25;83.11
54554;BME280;40450;55.848;-3.572;2023-02-15T03:16:09;99631.03;;;3.32;83.10
54554;BME280;40450;55.848;-3.572;2023-02-15T03:18:41;99627.44;;;3.07;83.56
54554;BME280;40450;55.848;-3.572;2023-02-15T03:21:10;99623.29;;;3.51;82.63
54554;BME280;40450;55.848;-3.572;2023-02-15T03:23:39;99621.82;;;3.77;81.81
54554;BME280;40450;55.848;-3.572;2023-02-15T03:26:10;99611.22;;;3.92;81.28
54554;BME280;40450;55.848;-3.572;2023-02-15T03:28:43;99597.16;;;3.97;81.34
54554;BME280;40450;55.848;-3.572;2023-02-15T03:31:11;99589.67;;;3.54;81.69
54554;BME280;40450;55.848;-3.572;2023-02-15T03:33:47;99584.69;;;4.41;79.91
54554;BME280;40450;55.848;-3.572;2023-02-15T03:36:16;99574.70;;;4.84;78.75
54554;BME280;40450;55.848;-3.572;2023-02-15T03:38:45;99567.99;;;4.50;79.04
54554;BME280;40450;55.848;-3.572;2023-02-15T03:41:12;99563.58;;;5.27;77.48
54554;BME280;40450;55.848;-3.572;2023-02-15T03:43:47;99562.94;;;4.33;79.21
54554;BME280;40450;55.848;-3.572;2023-02-15T03:46:17;99560.47;;;4.77;78.13
54554;BME280;40450;55.848;-3.572;2023-02-15T03:48:46;99554.67;;;4.87;77.62
54554;BME280;40450;55.848;-3.572;2023-02-15T03:51:17;99558.21;;;4.10;79.00
54554;BME280;40450;55.848;-3.572;2023-02-15T03:53:46;99557.91;;;4.43;78.19
54554;BME280;40450;55.848;-3.572;2023-02-15T03:56:14;99553.50;;;4.76;77.65
54554;BME280;40450;55.848;-3.572;2023-02-15T03:58:45;99556.60;;;4.74;77.04
54554;BME280;40450;55.848;-3.572;2023-02-15T04:01:23;99546.05;;;5.32;75.60
54554;BME280;40450;55.848;-3.572;2023-02-15T04:03:51;99539.56;;;5.42;74.96
54554;BME280;40450;55.848;-3.572;2023-02-15T04:06:16;99534.76;;;5.62;74.54
54554;BME280;40450;55.848;-3.572;2023-02-15T04:08:46;99528.81;;;6.23;73.25
54554;BME280;40450;55.848;-3.572;2023-02-15T04:11:16;99525.30;;;6.68;71.67
54554;BME280;40450;55.848;-3.572;2023-02-15T04:13:46;99515.67;;;7.01;70.45
54554;BME280;40450;55.848;-3.572;2023-02-15T04:16:17;99512.26;;;6.65;70.74
54554;BME280;40450;55.848;-3.572;2023-02-15T04:18:47;99506.09;;;6.80;70.64
54554;BME280;40450;55.848;-3.572;2023-02-15T04:21:18;99502.02;;;6.64;70.79
54554;BME280;40450;55.848;-3.572;2023-02-15T04:23:48;99492.83;;;6.50;70.44
54554;BME280;40450;55.848;-3.572;2023-02-15T04:26:18;99487.69;;;5.44;73.10
54554;BME280;40450;55.848;-3.572;2023-02-15T04:28:48;99485.17;;;5.23;73.78
54554;BME280;40450;55.848;-3.572;2023-02-15T04:31:19;99484.71;;;5.86;72.69
54554;BME280;40450;55.848;-3.572;2023-02-15T04:33:49;99481.09;;;4.91;74.64
54554;BME280;40450;55.848;-3.572;2023-02-15T04:36:19;99474.22;;;5.43;73.75
54554;BME280;40450;55.848;-3.572;2023-02-15T04:38:50;99474.99;;;5.15;74.30
54554;BME280;40450;55.848;-3.572;2023-02-15T04:41:21;99485.08;;;5.04;74.14
54554;BME280;40450;55.848;-3.572;2023-02-15T04:43:51;99481.77;;;5.46;73.57
54554;BME280;40450;55.848;-3.572;2023-02-15T04:46:21;99469.00;;;5.01;74.02
54554;BME280;40450;55.848;-3.572;2023-02-15T04:48:52;99466.53;;;4.71;75.00
54554;BME280;40450;55.848;-3.572;2023-02-15T04:51:23;99458.42;;;4.95;74.76
54554;BME280;40450;55.848;-3.572;2023-02-15T04:53:53;99451.46;;;5.03;74.81
54554;BME280;40450;55.848;-3.572;2023-02-15T04:56:23;99444.39;;;5.11;74.24
54554;BME280;40450;55.848;-3.572;2023-02-15T04:58:54;99442.57;;;4.57;75.50
54554;BME280;40450;55.848;-3.572;2023-02-15T05:01:25;99433.39;;;4.20;76.48
54554;BME280;40450;55.848;-3.572;2023-02-15T05:03:55;99427.70;;;3.63;77.85
54554;BME280;40450;55.848;-3.572;2023-02-15T05:06:26;99418.91;;;3.74;78.01
54554;BME280;40450;55.848;-3.572;2023-02-15T05:08:56;99416.96;;;3.33;78.77
54554;BME280;40450;55.848;-3.572;2023-02-15T05:11:27;99410.57;;;3.14;79.34
54554;BME280;40450;55.848;-3.572;2023-02-15T05:13:57;99409.89;;;3.68;77.92
54554;BME280;40450;55.848;-3.572;2023-02-15T05:16:28;99405.43;;;3.44;77.87
54554;BME280;40450;55.848;-3.572;2023-02-15T05:18:58;99393.04;;;3.02;78.42
54554;BME280;40450;55.848;-3.572;2023-02-15T05:21:29;99379.74;;;3.36;77.78
54554;BME280;40450;55.848;-3.572;2023-02-15T05:24:00;99364.51;;;3.39;78.13
54554;BME280;40450;55.848;-3.572;2023-02-15T05:26:30;99356.82;;;2.85;78.81
54554;BME280;40450;55.848;-3.572;2023-02-15T05:29:01;99342.99;;;2.93;78.83
54554;BME280;40450;55.848;-3.572;2023-02-15T05:31:31;99337.01;;;2.75;79.56
54554;BME280;40450;55.848;-3.572;2023-02-15T05:34:02;99338.74;;;2.93;79.12
54554;BME280;40450;55.848;-3.572;2023-02-15T05:36:32;99333.86;;;2.55;79.93
54554;BME280;40450;55.848;-3.572;2023-02-15T05:39:02;99321.69;;;2.25;80.75
54554;BME280;40450;55.848;-3.572;2023-02-15T05:41:33;99310.60;;;2.55;80.14
54554;BME280;40450;55.848;-3.572;2023-02-15T05:44:04;99299.17;;;2.47;80.28
54554;BME280;40450;55.848;-3.572;2023-02-15T05:46:35;99291.55;;;2.35;80.45
54554;BME280;40450;55.848;-3.572;2023-02-15T05:49:04;99291.01;;;2.47;80.17
54554;BME280;40450;55.848;-3.572;2023-02-15T05:51:35;99277.98;;;2.67;79.88
54554;BME280;40450;55.848;-3.572;2023-02-15T05:54:06;99263.38;;;2.80;79.93
54554;BME280;40450;55.848;-3.572;2023-02-15T05:56:36;99256.33;;;2.42;80.11
54554;BME280;40450;55.848;-3.572;2023-02-15T05:59:05;99245.72;;;2.39;80.49
54554;BME280;40450;55.848;-3.572;2023-02-15T06:01:36;99252.55;;;2.22;81.37
54554;BME280;40450;55.848;-3.572;2023-02-15T06:04:06;99245.35;;;2.57;80.62
54554;BME280;40450;55.848;-3.572;2023-02-15T06:06:36;99240.53;;;2.21;81.48
54554;BME280;40450;55.848;-3.572;2023-02-15T06:09:07;99237.67;;;2.47;81.11
54554;BME280;40450;55.848;-3.572;2023-02-15T06:11:37;99240.24;;;2.41;81.36
54554;BME280;40450;55.848;-3.572;2023-02-15T06:14:08;99248.62;;;2.63;80.69
54554;BME280;40450;55.848;-3.572;2023-02-15T06:16:39;99244.51;;;3.11;79.47
54554;BME280;40450;55.848;-3.572;2023-02-15T06:19:09;99249.78;;;2.90;80.35
54554;BME280;40450;55.848;-3.572;2023-02-15T06:21:40;99249.74;;;2.67;80.91
54554;BME280;40450;55.848;-3.572;2023-02-15T06:24:10;99235.74;;;2.27;81.69
54554;BME280;40450;55.848;-3.572;2023-02-15T06:26:41;99222.05;;;2.22;82.52
54554;BME280;40450;55.848;-3.572;2023-02-15T06:29:11;99222.11;;;1.43;84.05
54554;BME280;40450;55.848;-3.572;2023-02-15T06:31:41;99210.01;;;1.84;83.98
54554;BME280;40450;55.848;-3.572;2023-02-15T06:34:12;99201.48;;;2.15;83.46
54554;BME280;40450;55.848;-3.572;2023-02-15T06:36:42;99198.00;;;2.69;82.49
54554;BME280;40450;55.848;-3.572;2023-02-15T06:39:13;99203.12;;;2.57;82.71
54554;BME280;40450;55.848;-3.572;2023-02-15T06:41:44;99226.54;;;2.17;83.84
54554;BME280;40450;55.848;-3.572;2023-02-15T06:44:14;99243.85;;;2.26;83.96
54554;BME280;40450;55.848;-3.572;2023-02-15T06:46:45;99233.28;;;2.52;83.66
54554;BME280;40450;55.848;-3.572;2023-02-15T06:49:15;99224.97;;;2.78;82.98
54554;BME280;40450;55.848;-3.572;2023-02-15T06:51:45;99218.40;;;2.89;82.94
54554;BME280;40450;55.848;-3.572;2023-02-15T06:54:16;99213.88;;;3.28;82.31
54554;BME280;40450;55.848;-3.572;2023-02-15T06:56:46;99217.81;;;3.52;81.66
54554;BME280;40450;55.848;-3.572;2023-02-15T06:59:17;99210.11;;;4.16;80.40
54554;BME280;40450;55.848;-3.572;2023-02-15T07:01:47;99203.87;;;2.66;83.10
54554;BME280;40450;55.848;-3.572;2023-02-15T07:04:18;99196.43;;;3.63;81.69
54554;BME280;40450;55.848;-3.572;2023-02-15T07:06:49;99201.63;;;3.28;82.10
54554;BME280;40450;55.848;-3.572;2023-02-15T07:09:19;99192.82;;;3.44;82.04
54554;BME280;40450;55.848;-3.572;2023-02-15T07:11:50;99180.84;;;3.16;82.71
54554;BME280;40450;55.848;-3.572;2023-02-15T07:14:20;99185.20;;;2.88;83.44
54554;BME280;40450;55.848;-3.572;2023-02-15T07:16:50;99190.29;;;2.97;83.33
54554;BME280;40450;55.848;-3.572;2023-02-15T07:19:21;99184.95;;;2.81;84.11
54554;BME280;40450;55.848;-3.572;2023-02-15T07:21:52;99189.06;;;2.93;83.79
54554;BME280;40450;55.848;-3.572;2023-02-15T07:24:23;99189.61;;;2.75;84.55
54554;BME280;40450;55.848;-3.572;2023-02-15T07:26:53;99193.18;;;2.96;84.13
54554;BME280;40450;55.848;-3.572;2023-02-15T07:29:23;99203.68;;;2.50;85.34
54554;BME280;40450;55.848;-3.572;2023-02-15T07:31:55;99191.07;;;2.28;86.16
54554;BME280;40450;55.848;-3.572;2023-02-15T07:34:24;99189.26;;;2.21;86.51
54554;BME280;40450;55.848;-3.572;2023-02-15T07:36:55;99185.31;;;2.20;86.76
54554;BME280;40450;55.848;-3.572;2023-02-15T07:39:25;99176.76;;;3.22;84.35
54554;BME280;40450;55.848;-3.572;2023-02-15T07:41:55;99174.37;;;3.39;83.99
54554;BME280;40450;55.848;-3.572;2023-02-15T07:44:26;99158.07;;;3.33;84.40
54554;BME280;40450;55.848;-3.572;2023-02-15T07:46:56;99151.29;;;2.61;86.12
54554;BME280;40450;55.848;-3.572;2023-02-15T07:49:27;99139.89;;;2.64;86.57
54554;BME280;40450;55.848;-3.572;2023-02-15T07:52:00;99135.22;;;2.93;86.00
54554;BME280;40450;55.848;-3.572;2023-02-15T07:54:28;99145.43;;;2.16;87.90
54554;BME280;40450;55.848;-3.572;2023-02-15T07:57:00;99146.35;;;1.69;89.34
54554;BME280;40450;55.848;-3.572;2023-02-15T07:59:29;99129.29;;;2.47;88.05
54554;BME280;40450;55.848;-3.572;2023-02-15T08:02:00;99120.17;;;1.81;89.06
54554;BME280;40450;55.848;-3.572;2023-02-15T08:04:30;99114.09;;;1.42;90.30
54554;BME280;40450;55.848;-3.572;2023-02-15T08:07:00;99105.61;;;0.99;91.21
54554;BME280;40450;55.848;-3.572;2023-02-15T08:09:31;99080.97;;;1.41;90.79
54554;BME280;40450;55.848;-3.572;2023-02-15T08:12:01;99068.34;;;1.50;90.72
54554;BME280;40450;55.848;-3.572;2023-02-15T08:14:31;99091.99;;;1.10;91.90
54554;BME280;40450;55.848;-3.572;2023-02-15T08:17:02;99096.17;;;0.49;93.34
54554;BME280;40450;55.848;-3.572;2023-02-15T08:19:33;99105.74;;;0.52;93.85
54554;BME280;40450;55.848;-3.572;2023-02-15T08:22:05;99099.21;;;0.59;93.73
54554;BME280;40450;55.848;-3.572;2023-02-15T08:24:35;99090.70;;;0.49;94.28
54554;BME280;40450;55.848;-3.572;2023-02-15T08:27:05;99084.34;;;0.56;94.57
54554;BME280;40450;55.848;-3.572;2023-02-15T08:29:35;99093.34;;;0.76;94.45
54554;BME280;40450;55.848;-3.572;2023-02-15T08:32:06;99096.92;;;0.39;95.18
54554;BME280;40450;55.848;-3.572;2023-02-15T08:34:38;99097.18;;;0.27;95.70
54554;BME280;40450;55.848;-3.572;2023-02-15T08:37:06;99099.79;;;0.86;94.52
54554;BME280;40450;55.848;-3.572;2023-02-15T08:39:36;99098.28;;;0.79;94.94
54554;BME280;40450;55.848;-3.572;2023-02-15T08:42:06;99102.02;;;0.00;96.53
54554;BME280;40450;55.848;-3.572;2023-02-15T08:44:36;99093.35;;;-0.09;97.11
54554;BME280;40450;55.848;-3.572;2023-02-15T08:47:07;99112.66;;;-0.17;97.47
54554;BME280;40450;55.848;-3.572;2023-02-15T08:49:38;99122.89;;;0.34;96.67
54554;BME280;40450;55.848;-3.572;2023-02-15T08:52:08;99129.46;;;0.86;96.00
54554;BME280;40450;55.848;-3.572;2023-02-15T08:54:38;99139.14;;;1.29;95.31
54554;BME280;40450;55.848;-3.572;2023-02-15T08:57:09;99145.02;;;1.57;95.50
54554;BME280;40450;55.848;-3.572;2023-02-15T08:59:39;99149.22;;;1.35;96.48
54554;BME280;40450;55.848;-3.572;2023-02-15T09:02:10;99155.37;;;1.83;96.17
54554;BME280;40450;55.848;-3.572;2023-02-15T09:04:40;99154.35;;;1.44;97.28
54554;BME280;40450;55.848;-3.572;2023-02-15T09:07:10;99155.63;;;1.14;98.66
54554;BME280;40450;55.848;-3.572;2023-02-15T09:09:41;99148.33;;;1.08;99.99
54554;BME280;40450;55.848;-3.572;2023-02-15T09:12:12;99153.46;;;1.59;99.78
54554;BME280;40450;55.848;-3.572;2023-02-15T09:14:42;99147.48;;;1.12;100.00
54554;BME280;40450;55.848;-3.572;2023-02-15T09:17:12;99146.02;;;1.38;100.00
54554;BME280;40450;55.848;-3.572;2023-02-15T09:19:43;99139.04;;;0.83;100.00
54554;BME280;40450;55.848;-3.572;2023-02-15T09:22:14;99133.30;;;1.46;100.00
54554;BME280;40450;55.848;-3.572;2023-02-15T09:24:44;99134.54;;;1.64;100.00
54554;BME280;40450;55.848;-3.572;2023-02-15T09:27:14;99137.31;;;1.81;100.00
54554;BME280;40450;55.848;-3.572;2023-02-15T09:29:44;99143.00;;;1.15;100.00
54554;BME280;40450;55.848;-3.572;2023-02-15T09:32:15;99145.19;;;1.20;100.00
54554;BME280;40450;55.848;-3.572;2023-02-15T09:34:46;99139.18;;;1.09;100.00
54554;BME280;40450;55.848;-3.572;2023-02-15T09:37:16;99140.59;;;1.38;100.00
54554;BME280;40450;55.848;-3.572;2023-02-15T09:39:47;99139.72;;;1.32;100.00
54554;BME280;40450;55.848;-3.572;2023-02-15T09:42:28;99128.81;;;0.88;100.00
54554;BME280;40450;55.848;-3.572;2023-02-15T09:45:01;99141.21;;;0.43;100.00
54554;BME280;40450;55.848;-3.572;2023-02-15T09:47:30;99137.73;;;0.26;100.00
54554;BME280;40450;55.848;-3.572;2023-02-15T09:49:53;99138.64;;;1.05;100.00
54554;BME280;40450;55.848;-3.572;2023-02-15T09:52:32;99137.18;;;1.74;100.00
54554;BME280;40450;55.848;-3.572;2023-02-15T09:54:59;99138.94;;;1.14;100.00
54554;BME280;40450;55.848;-3.572;2023-02-15T09:57:26;99137.01;;;0.95;100.00
54554;BME280;40450;55.848;-3.572;2023-02-15T09:59:58;99127.73;;;0.62;100.00
54554;BME280;40450;55.848;-3.572;2023-02-15T10:02:29;99126.45;;;1.21;100.00
54554;BME280;40450;55.848;-3.572;2023-02-15T10:05:00;99119.84;;;0.95;100.00
54554;BME280;40450;55.848;-3.572;2023-02-15T10:07:32;99113.90;;;0.82;100.00
54554;BME280;40450;55.848;-3.572;2023-02-15T10:10:02;99109.61;;;0.79;100.00
54554;BME280;40450;55.848;-3.572;2023-02-15T10:17:31;99115.82;;;1.03;100.00
54554;BME280;40450;55.848;-3.572;2023-02-15T10:20:02;99116.14;;;1.52;100.00
54554;BME280;40450;55.848;-3.572;2023-02-15T10:22:29;99119.17;;;0.72;100.00
54554;BME280;40450;55.848;-3.572;2023-02-15T10:25:06;99120.34;;;1.43;100.00
54554;BME280;40450;55.848;-3.572;2023-02-15T10:27:26;99131.22;;;1.60;100.00
54554;BME280;40450;55.848;-3.572;2023-02-15T10:30:02;99135.45;;;1.65;100.00
54554;BME280;40450;55.848;-3.572;2023-02-15T10:32:27;99139.61;;;1.46;100.00
54554;BME280;40450;55.848;-3.572;2023-02-15T10:35:01;99144.00;;;1.16;100.00
54554;BME280;40450;55.848;-3.572;2023-02-15T10:37:41;99144.55;;;1.78;100.00
54554;BME280;40450;55.848;-3.572;2023-02-15T10:40:02;99143.65;;;2.03;100.00
54554;BME280;40450;55.848;-3.572;2023-02-15T10:42:31;99146.48;;;1.33;100.00
54554;BME280;40450;55.848;-3.572;2023-02-15T10:45:07;99147.30;;;1.93;100.00
54554;BME280;40450;55.848;-3.572;2023-02-15T10:47:38;99154.41;;;1.85;100.00
54554;BME280;40450;55.848;-3.572;2023-02-15T10:50:10;99155.90;;;1.37;100.00
54554;BME280;40450;55.848;-3.572;2023-02-15T10:52:37;99160.38;;;2.03;100.00
54554;BME280;40450;55.848;-3.572;2023-02-15T10:55:06;99168.73;;;2.21;100.00
54554;BME280;40450;55.848;-3.572;2023-02-15T10:57:33;99167.43;;;3.01;100.00
54554;BME280;40450;55.848;-3.572;2023-02-15T11:00:05;99171.36;;;3.20;100.00
54554;BME280;40450;55.848;-3.572;2023-02-15T11:02:40;99176.98;;;3.91;99.59
54554;BME280;40450;55.848;-3.572;2023-02-15T11:05:08;99175.10;;;3.69;99.43
54554;BME280;40450;55.848;-3.572;2023-02-15T11:07:33;99180.90;;;4.59;98.81
54554;BME280;40450;55.848;-3.572;2023-02-15T11:10:05;99178.27;;;4.69;98.68
54554;BME280;40450;55.848;-3.572;2023-02-15T11:12:31;99185.41;;;4.44;98.25
54554;BME280;40450;55.848;-3.572;2023-02-15T11:15:02;99181.44;;;4.62;98.07
54554;BME280;40450;55.848;-3.572;2023-02-15T11:17:35;99178.43;;;4.94;96.89
54554;BME280;40450;55.848;-3.572;2023-02-15T11:20:08;99175.47;;;5.35;96.32
54554;BME280;40450;55.848;-3.572;2023-02-15T11:22:32;99172.29;;;5.34;96.17
54554;BME280;40450;55.848;-3.572;2023-02-15T11:25:06;99171.85;;;5.26;95.65
54554;BME280;40450;55.848;-3.572;2023-02-15T11:27:33;99176.51;;;5.92;94.09
54554;BME280;40450;55.848;-3.572;2023-02-15T11:30:04;99178.37;;;5.84;93.69
54554;BME280;40450;55.848;-3.572;2023-02-15T11:32:34;99188.20;;;5.70;94.15
54554;BME280;40450;55.848;-3.572;2023-02-15T11:35:10;99196.03;;;6.66;92.77
54554;BME280;40450;55.848;-3.572;2023-02-15T11:37:37;99192.80;;;7.20;91.72
54554;BME280;40450;55.848;-3.572;2023-02-15T11:40:08;99191.46;;;6.90;91.14
54554;BME280;40450;55.848;-3.572;2023-02-15T11:42:34;99196.16;;;7.32;90.25
54554;BME280;40450;55.848;-3.572;2023-02-15T11:45:14;99197.05;;;6.63;90.29
54554;BME280;40450;55.848;-3.572;2023-02-15T11:47:34;99199.33;;;6.78;90.34
54554;BME280;40450;55.848;-3.572;2023-02-15T11:50:05;99202.09;;;6.45;90.39
54554;BME280;40450;55.848;-3.572;2023-02-15T11:52:35;99198.07;;;6.55;90.55
54554;BME280;40450;55.848;-3.572;2023-02-15T11:55:11;99195.58;;;6.22;90.54
54554;BME280;40450;55.848;-3.572;2023-02-15T11:57:40;99192.24;;;5.85;91.66
54554;BME280;40450;55.848;-3.572;2023-02-15T12:00:13;99194.01;;;6.05;91.84
54554;BME280;40450;55.848;-3.572;2023-02-15T12:02:38;99196.72;;;6.15;92.47
54554;BME280;40450;55.848;-3.572;2023-02-15T12:05:13;99192.97;;;6.00;92.14
54554;BME280;40450;55.848;-3.572;2023-02-15T12:07:42;99192.82;;;5.16;94.20
54554;BME280;40450;55.848;-3.572;2023-02-15T12:10:16;99185.87;;;4.70;94.97
54554;BME280;40450;55.848;-3.572;2023-02-15T12:12:38;99178.63;;;5.65;93.63
54554;BME280;40450;55.848;-3.572;2023-02-15T12:15:11;99185.76;;;5.73;93.86
54554;BME280;40450;55.848;-3.572;2023-02-15T12:17:41;99186.45;;;5.32;94.32
54554;BME280;40450;55.848;-3.572;2023-02-15T12:22:45;99186.68;;;5.71;93.52
54554;BME280;40450;55.848;-3.572;2023-02-15T12:25:20;99184.00;;;5.63;93.83
54554;BME280;40450;55.848;-3.572;2023-02-15T12:27:42;99187.82;;;5.20;94.27
54554;BME280;40450;55.848;-3.572;2023-02-15T12:30:18;99184.41;;;4.96;93.42
54554;BME280;40450;55.848;-3.572;2023-02-15T12:32:47;99187.59;;;5.47;93.04
54554;BME280;40450;55.848;-3.572;2023-02-15T12:35:15;99183.99;;;5.99;92.89
54554;BME280;40450;55.848;-3.572;2023-02-15T12:37:52;99185.71;;;5.93;92.22
54554;BME280;40450;55.848;-3.572;2023-02-15T12:40:19;99184.75;;;6.31;91.92
54554;BME280;40450;55.848;-3.572;2023-02-15T12:42:44;99191.16;;;5.13;92.14
54554;BME280;40450;55.848;-3.572;2023-02-15T12:45:20;99200.87;;;5.14;93.09
54554;BME280;40450;55.848;-3.572;2023-02-15T12:47:44;99199.60;;;5.18;93.04
54554;BME280;40450;55.848;-3.572;2023-02-15T12:52:46;99194.57;;;5.70;92.15
54554;BME280;40450;55.848;-3.572;2023-02-15T12:55:20;99197.52;;;5.44;91.35
54554;BME280;40450;55.848;-3.572;2023-02-15T12:57:45;99202.83;;;4.80;92.63
54554;BME280;40450;55.848;-3.572;2023-02-15T13:00:25;99206.75;;;5.79;91.04
54554;BME280;40450;55.848;-3.572;2023-02-15T13:02:47;99208.29;;;5.47;90.62
54554;BME280;40450;55.848;-3.572;2023-02-15T13:05:19;99213.14;;;5.69;90.25
54554;BME280;40450;55.848;-3.572;2023-02-15T13:07:50;99205.58;;;5.55;90.23
54554;BME280;40450;55.848;-3.572;2023-02-15T13:10:22;99214.90;;;4.57;91.61
54554;BME280;40450;55.848;-3.572;2023-02-15T13:12:47;99215.78;;;5.19;91.85
54554;BME280;40450;55.848;-3.572;2023-02-15T13:15:23;99218.70;;;5.87;89.49
54554;BME280;40450;55.848;-3.572;2023-02-15T13:17:49;99225.71;;;6.64;87.77
54554;BME280;40450;55.848;-3.572;2023-02-15T13:20:20;99225.87;;;5.71;87.80
54554;BME280;40450;55.848;-3.572;2023-02-15T13:22:50;99224.31;;;5.40;88.12
54554;BME280;40450;55.848;-3.572;2023-02-15T13:25:21;99221.48;;;5.62;87.30
54554;BME280;40450;55.848;-3.572;2023-02-15T13:27:52;99219.79;;;5.87;87.69
54554;BME280;40450;55.848;-3.572;2023-02-15T13:30:25;99221.23;;;5.39;88.60
54554;BME280;40450;55.848;-3.572;2023-02-15T13:32:54;99225.20;;;5.09;89.26
54554;BME280;40450;55.848;-3.572;2023-02-15T13:35:22;99221.08;;;5.00;90.17